Time;durP1;ratioP1;P1;durP2;ratioP2;P2;SDS_P1;SDS_P2;PMS_P1;PMS_P2;Temp;Humidity;BMP_temperature;BMP_pressure;BME280_temperature;BME280_humidity;BME280_pressure;Samples;Min_cycle;Max_cycle;Signal;HPM_P1;HPM_P2
2023/06/01 00:01:33;;;;;;;21.63;9.65;;;11.20;99.90;;;;;;5058573;28;20585;-37
2023/06/01 00:03:59;;;;;;;20.33;9.07;;;11.20;99.90;;;;;;5076722;28;20846;-36
2023/06/01 00:06:28;;;;;;;13.20;8.23;;;11.10;99.90;;;;;;5068980;28;20378;-36
2023/06/01 00:08:57;;;;;;;19.35;8.15;;;11.10;99.90;;;;;;5061031;28;20048;-36
2023/06/01 00:11:23;;;;;;;15.23;7.50;;;11.10;99.90;;;;;;5063045;28;20182;-37
2023/06/01 00:13:49;;;;;;;14.60;7.70;;;11.10;99.90;;;;;;5075796;28;20543;-40
2023/06/01 00:16:16;;;;;;;11.10;7.15;;;11.10;99.90;;;;;;5076392;28;20101;-40
2023/06/01 00:18:43;;;;;;;11.10;7.05;;;11.10;99.90;;;;;;5074888;28;20048;-36
2023/06/01 00:21:09;;;;;;;14.05;7.63;;;11.20;99.90;;;;;;5076024;28;20048;-37
2023/06/01 00:23:35;;;;;;;11.07;5.75;;;11.10;99.90;;;;;;5075132;28;20043;-36
2023/06/01 00:26:01;;;;;;;15.77;7.78;;;11.20;99.90;;;;;;5075989;28;20048;-36
2023/06/01 00:28:27;;;;;;;12.95;7.05;;;11.20;99.90;;;;;;5075716;28;20842;-40
2023/06/01 00:30:53;;;;;;;18.17;6.55;;;11.30;99.90;;;;;;5075664;28;20048;-37
2023/06/01 00:33:20;;;;;;;18.20;7.43;;;11.20;99.90;;;;;;5074941;28;20441;-42
2023/06/01 00:35:45;;;;;;;13.95;6.60;;;11.20;99.90;;;;;;5076576;28;20040;-40
2023/06/01 00:38:11;;;;;;;17.33;7.30;;;11.20;99.90;;;;;;5060533;28;20090;-40
2023/06/01 00:40:37;;;;;;;16.42;7.90;;;11.20;99.90;;;;;;5061831;28;20101;-39
2023/06/01 00:43:02;;;;;;;16.75;8.35;;;11.20;99.90;;;;;;5067431;28;20055;-39
2023/06/01 00:45:28;;;;;;;15.68;8.25;;;11.20;99.90;;;;;;5074730;28;20427;-37
2023/06/01 00:47:54;;;;;;;18.08;9.90;;;11.10;99.90;;;;;;5074803;28;20141;-38
2023/06/01 00:50:21;;;;;;;15.20;10.23;;;11.10;99.90;;;;;;5068171;28;20044;-37
2023/06/01 00:52:50;;;;;;;16.08;8.88;;;11.10;99.90;;;;;;5074925;28;20613;-41
2023/06/01 00:55:16;;;;;;;20.45;9.90;;;11.10;99.90;;;;;;5075709;28;20052;-38
2023/06/01 00:57:43;;;;;;;21.10;9.93;;;11.10;99.90;;;;;;5075600;28;20046;-36
2023/06/01 01:00:09;;;;;;;14.50;9.18;;;11.10;99.90;;;;;;5075256;28;20044;-37
2023/06/01 01:02:48;;;;;;;15.63;9.30;;;11.10;99.90;;;;;;5073571;28;20174;-38
2023/06/01 01:05:16;;;;;;;15.10;9.40;;;11.10;99.90;;;;;;5075970;28;20547;-38
2023/06/01 01:07:50;;;;;;;16.40;9.68;;;11.10;99.90;;;;;;5075521;28;20499;-38
2023/06/01 01:10:37;;;;;;;18.90;9.25;;;11.10;99.90;;;;;;5075365;28;20555;-39
2023/06/01 01:13:16;;;;;;;16.50;8.18;;;11.10;99.90;;;;;;5075642;28;20154;-38
2023/06/01 01:15:53;;;;;;;13.48;8.10;;;11.10;99.90;;;;;;5076225;28;20059;-38
2023/06/01 01:18:32;;;;;;;16.33;8.50;;;11.10;99.90;;;;;;5075391;28;20394;-39
2023/06/01 01:21:01;;;;;;;19.35;9.10;;;11.10;99.90;;;;;;5075144;28;20066;-39
2023/06/01 01:23:58;;;;;;;18.13;9.20;;;11.10;99.90;;;;;;5074200;28;20099;-38
2023/06/01 01:26:47;;;;;;;14.13;8.32;;;11.20;99.90;;;;;;5075329;28;20040;-40
2023/06/01 01:29:15;;;;;;;12.77;7.95;;;11.20;99.90;;;;;;5061998;28;20460;-37
2023/06/01 01:31:42;;;;;;;16.17;7.35;;;11.20;99.90;;;;;;5073913;28;20478;-39
2023/06/01 01:34:09;;;;;;;15.93;7.53;;;11.20;99.90;;;;;;5073170;28;20318;-40
2023/06/01 01:36:35;;;;;;;13.35;7.38;;;11.20;99.90;;;;;;5070344;28;20036;-42
2023/06/01 01:39:02;;;;;;;22.42;8.52;;;11.20;99.90;;;;;;5056521;28;20036;-39
2023/06/01 01:41:28;;;;;;;16.38;8.30;;;11.20;99.90;;;;;;5068325;28;20047;-36
2023/06/01 01:43:54;;;;;;;15.95;9.05;;;11.10;99.90;;;;;;5065151;28;20051;-39
2023/06/01 01:46:29;;;;;;;14.02;8.30;;;11.10;99.90;;;;;;5074999;28;20051;-40
2023/06/01 01:49:03;;;;;;;18.65;7.93;;;11.10;99.90;;;;;;5072269;28;20128;-41
2023/06/01 01:51:40;;;;;;;21.63;8.68;;;11.10;99.90;;;;;;5068409;28;20086;-40
2023/06/01 01:54:07;;;;;;;17.15;8.00;;;11.00;99.90;;;;;;5074105;28;20043;-40
2023/06/01 01:56:35;;;;;;;17.48;9.05;;;11.00;99.90;;;;;;5074189;28;20044;-36
2023/06/01 01:59:03;;;;;;;19.02;8.77;;;10.90;99.90;;;;;;5073446;28;20507;-40
2023/06/01 02:01:29;;;;;;;17.17;8.82;;;10.90;99.90;;;;;;5066685;28;20565;-38
2023/06/01 02:04:03;;;;;;;16.60;8.82;;;10.90;99.90;;;;;;5065381;28;21007;-36
2023/06/01 02:06:28;;;;;;;;;;;11.00;99.90;;;;;;5072669;28;20089;-38
2023/06/01 02:08:54;;;;;;;15.20;8.90;;;11.00;99.90;;;;;;5073617;28;19927;-39
2023/06/01 02:11:20;;;;;;;12.75;8.73;;;11.00;99.90;;;;;;5074145;28;20047;-37
2023/06/01 02:13:46;;;;;;;15.77;9.13;;;11.00;99.90;;;;;;5072500;28;20044;-39
2023/06/01 02:16:12;;;;;;;20.05;9.50;;;11.00;99.90;;;;;;5073740;28;20051;-38
2023/06/01 02:18:39;;;;;;;18.85;10.05;;;11.10;99.90;;;;;;5072240;28;20827;-38
2023/06/01 02:21:08;;;;;;;18.70;9.15;;;11.10;99.90;;;;;;5074410;28;20432;-38
2023/06/01 02:23:35;;;;;;;21.58;10.18;;;11.00;99.90;;;;;;5073397;28;20044;-38
2023/06/01 02:26:00;;;;;;;22.92;11.68;;;11.10;99.90;;;;;;5073356;28;20272;-38
2023/06/01 02:28:26;;;;;;;17.63;10.70;;;11.00;99.90;;;;;;5074206;28;20039;-38
2023/06/01 02:30:51;;;;;;;16.42;9.10;;;11.00;99.90;;;;;;5071697;28;20048;-38
2023/06/01 02:33:17;;;;;;;18.00;10.57;;;11.00;99.90;;;;;;5073293;28;20131;-39
2023/06/01 02:35:43;;;;;;;17.20;10.00;;;11.00;99.90;;;;;;5074484;28;20043;-37
2023/06/01 02:38:08;;;;;;;14.48;9.65;;;11.00;99.90;;;;;;5058488;28;20040;-41
2023/06/01 02:40:34;;;;;;;13.95;8.93;;;11.00;99.90;;;;;;5058213;28;20139;-39
2023/06/01 02:43:00;;;;;;;15.63;9.20;;;11.00;99.90;;;;;;5065048;28;20063;-40
2023/06/01 02:45:25;;;;;;;19.40;9.60;;;11.00;99.90;;;;;;5072856;28;20085;-41
2023/06/01 02:47:51;;;;;;;19.45;10.07;;;11.00;99.90;;;;;;5055620;28;20577;-37
2023/06/01 02:50:16;;;;;;;16.60;10.68;;;11.00;99.90;;;;;;5065966;28;20043;-37
2023/06/01 02:52:43;;;;;;;15.85;9.90;;;11.00;99.90;;;;;;5074066;28;20122;-36
2023/06/01 02:55:09;;;;;;;16.67;10.18;;;10.90;99.90;;;;;;5074062;28;20157;-39
2023/06/01 02:57:35;;;;;;;15.07;9.23;;;10.90;99.90;;;;;;5073915;28;20040;-36
2023/06/01 03:00:00;;;;;;;18.63;9.95;;;10.90;99.90;;;;;;5071422;28;20039;-40
2023/06/01 03:02:27;;;;;;;15.13;8.88;;;10.90;99.90;;;;;;5073446;28;20411;-36
2023/06/01 03:04:53;;;;;;;21.20;9.73;;;10.90;99.90;;;;;;5073459;28;20044;-38
2023/06/01 03:07:19;;;;;;;15.48;9.23;;;10.90;99.90;;;;;;5073601;28;20820;-41
2023/06/01 03:09:44;;;;;;;17.23;9.80;;;10.90;99.90;;;;;;5072189;28;20048;-39
2023/06/01 03:12:10;;;;;;;15.10;9.07;;;10.80;99.90;;;;;;5073163;28;20454;-41
2023/06/01 03:14:36;;;;;;;18.45;10.10;;;10.80;99.90;;;;;;5073516;28;20051;-39
2023/06/01 03:17:01;;;;;;;14.57;8.52;;;10.80;99.90;;;;;;5073994;28;20047;-38
2023/06/01 03:19:27;;;;;;;17.15;9.18;;;10.80;99.90;;;;;;5072432;28;20043;-38
2023/06/01 03:21:53;;;;;;;17.15;9.50;;;10.80;99.90;;;;;;5072636;28;20403;-38
2023/06/01 03:24:18;;;;;;;14.50;9.10;;;10.80;99.90;;;;;;5073093;28;20428;-38
2023/06/01 03:26:44;;;;;;;17.40;8.88;;;10.80;99.90;;;;;;5040475;28;20060;-39
2023/06/01 03:29:10;;;;;;;17.10;9.52;;;10.80;99.90;;;;;;5077308;28;20101;-38
2023/06/01 03:31:36;;;;;;;17.77;9.32;;;10.80;99.90;;;;;;5077523;28;20501;-41
2023/06/01 03:34:02;;;;;;;13.98;8.13;;;10.80;99.90;;;;;;5077462;28;20048;-40
2023/06/01 03:36:27;;;;;;;14.52;7.22;;;10.90;99.90;;;;;;5072806;28;20048;-40
2023/06/01 03:38:53;;;;;;;11.57;7.40;;;10.90;99.90;;;;;;5059557;28;20034;-36
2023/06/01 03:41:19;;;;;;;16.33;7.85;;;10.80;99.90;;;;;;5068548;28;20601;-39
2023/06/01 03:43:45;;;;;;;14.23;6.90;;;10.80;99.90;;;;;;5068066;28;20082;-38
2023/06/01 03:46:11;;;;;;;17.02;7.72;;;10.80;99.90;;;;;;5077168;28;20051;-39
2023/06/01 03:48:37;;;;;;;11.65;6.88;;;10.80;99.90;;;;;;5076294;28;20102;-39
2023/06/01 03:51:03;;;;;;;14.77;6.32;;;10.90;99.90;;;;;;5069980;28;20071;-35
2023/06/01 03:53:31;;;;;;;11.25;5.95;;;10.90;99.90;;;;;;5076275;28;20056;-35
2023/06/01 03:55:57;;;;;;;10.52;5.85;;;10.90;99.90;;;;;;5077038;28;20051;-35
2023/06/01 03:58:23;;;;;;;14.35;5.50;;;10.90;99.90;;;;;;5076011;28;20044;-36
2023/06/01 04:00:49;;;;;;;9.57;5.18;;;10.90;99.90;;;;;;5073603;28;20212;-37
2023/06/01 04:03:15;;;;;;;9.93;5.05;;;11.00;99.90;;;;;;5072213;28;20455;-38
2023/06/01 04:05:41;;;;;;;11.98;5.18;;;11.00;99.90;;;;;;5073496;28;20119;-40
2023/06/01 04:08:08;;;;;;;8.52;4.90;;;11.00;99.90;;;;;;5062676;28;20216;-36
2023/06/01 04:10:34;;;;;;;8.93;5.13;;;11.00;99.90;;;;;;5067749;28;20044;-39
2023/06/01 04:13:00;;;;;;;11.02;4.82;;;11.10;99.90;;;;;;5075653;28;20511;-38
2023/06/01 04:15:25;;;;;;;9.98;4.93;;;11.10;99.90;;;;;;5076591;28;20035;-40
2023/06/01 04:17:51;;;;;;;10.55;5.93;;;11.10;99.90;;;;;;5076313;28;20036;-36
2023/06/01 04:20:17;;;;;;;14.88;6.55;;;11.00;99.90;;;;;;5074368;28;20113;-39
2023/06/01 04:22:44;;;;;;;8.90;5.38;;;11.10;99.90;;;;;;5076037;28;20032;-36
2023/06/01 04:25:12;;;;;;;11.73;5.68;;;11.10;99.90;;;;;;5075120;28;20048;-40
2023/06/01 04:27:44;;;;;;;10.32;5.80;;;11.20;99.90;;;;;;5075916;28;20074;-40
2023/06/01 04:30:11;;;;;;;12.55;5.43;;;11.20;99.90;;;;;;5075897;28;20126;-38
2023/06/01 04:32:40;;;;;;;12.30;5.00;;;11.20;99.90;;;;;;5075751;28;20597;-36
2023/06/01 04:35:07;;;;;;;9.68;5.20;;;11.20;99.90;;;;;;5075841;28;20079;-36
2023/06/01 04:37:39;;;;;;;11.85;5.68;;;11.20;99.90;;;;;;5064091;28;20052;-38
2023/06/01 04:40:09;;;;;;;10.48;5.70;;;11.20;99.90;;;;;;5057899;28;20052;-40
2023/06/01 04:42:36;;;;;;;11.20;5.47;;;11.20;99.90;;;;;;5069729;28;20550;-37
2023/06/01 04:45:07;;;;;;;10.50;5.95;;;11.20;99.90;;;;;;5071355;28;20574;-40
2023/06/01 04:47:37;;;;;;;13.93;6.45;;;11.20;99.90;;;;;;5075058;28;20091;-41
2023/06/01 04:50:05;;;;;;;12.07;5.78;;;11.30;99.90;;;;;;5068419;28;20048;-39
2023/06/01 04:52:31;;;;;;;12.52;6.07;;;11.20;99.90;;;;;;5074804;28;20040;-40
2023/06/01 04:54:56;;;;;;;11.50;5.85;;;11.30;99.90;;;;;;5075601;28;20502;-36
2023/06/01 04:57:23;;;;;;;8.10;5.10;;;11.30;99.90;;;;;;5074428;28;20131;-40
2023/06/01 04:59:50;;;;;;;10.65;5.47;;;11.30;99.90;;;;;;5057223;28;20048;-40
2023/06/01 05:02:15;;;;;;;12.20;5.80;;;11.30;99.90;;;;;;5075512;28;20048;-41
2023/06/01 05:04:41;;;;;;;11.57;5.63;;;11.40;99.90;;;;;;5074264;28;20168;-40
2023/06/01 05:07:07;;;;;;;12.68;7.40;;;11.30;99.90;;;;;;5075953;28;20159;-36
2023/06/01 05:09:33;;;;;;;12.90;5.60;;;11.30;99.90;;;;;;5075214;28;20113;-40
2023/06/01 05:11:58;;;;;;;13.60;6.07;;;11.40;99.90;;;;;;5073833;28;20606;-39
2023/06/01 05:14:24;;;;;;;11.60;5.68;;;11.40;99.90;;;;;;5074730;28;20123;-40
2023/06/01 05:16:50;;;;;;;12.00;5.60;;;11.50;99.90;;;;;;5076028;28;20202;-39
2023/06/01 05:19:15;;;;;;;10.43;5.40;;;11.50;99.90;;;;;;5074883;28;20051;-41
2023/06/01 05:21:43;;;;;;;13.93;5.50;;;11.60;99.90;;;;;;5075105;28;20040;-41
2023/06/01 05:24:09;;;;;;;11.30;5.45;;;11.60;99.90;;;;;;5075682;28;20040;-37
2023/06/01 05:26:34;;;;;;;9.43;5.00;;;11.60;99.90;;;;;;5076150;28;20059;-39
2023/06/01 05:29:00;;;;;;;13.23;5.72;;;11.70;99.90;;;;;;5074715;28;20048;-41
2023/06/01 05:31:26;;;;;;;12.55;4.93;;;11.60;99.90;;;;;;5056453;28;20463;-40
2023/06/01 05:33:52;;;;;;;19.58;6.15;;;11.70;99.90;;;;;;5075159;28;20193;-39
2023/06/01 05:36:17;;;;;;;11.05;5.53;;;11.60;99.90;;;;;;5072251;28;20527;-38
2023/06/01 05:38:43;;;;;;;9.82;6.28;;;11.70;99.90;;;;;;5060268;28;20036;-40
2023/06/01 05:41:09;;;;;;;10.68;5.65;;;11.70;99.90;;;;;;5068432;28;20377;-40
2023/06/01 05:43:37;;;;;;;11.00;5.15;;;11.80;99.90;;;;;;5062245;28;20040;-39
2023/06/01 05:46:03;;;;;;;10.20;5.10;;;11.70;99.90;;;;;;5074810;28;20341;-40
2023/06/01 05:48:29;;;;;;;10.73;5.63;;;11.70;99.90;;;;;;5074139;28;20036;-40
2023/06/01 05:50:54;;;;;;;10.73;5.57;;;11.80;99.90;;;;;;5068032;28;20469;-39
2023/06/01 05:53:24;;;;;;;7.97;5.28;;;11.80;99.90;;;;;;5074702;28;20046;-38
2023/06/01 05:55:52;;;;;;;13.07;5.45;;;11.80;99.90;;;;;;5075821;28;20040;-40
2023/06/01 05:58:18;;;;;;;11.40;5.68;;;11.90;99.90;;;;;;5074513;28;20077;-41
2023/06/01 06:00:43;;;;;;;13.27;5.78;;;11.80;99.90;;;;;;5075684;28;20036;-39
2023/06/01 06:03:09;;;;;;;10.40;5.72;;;11.80;99.90;;;;;;5073083;28;20047;-37
2023/06/01 06:05:35;;;;;;;12.65;5.40;;;11.80;99.90;;;;;;5074466;28;20541;-38
2023/06/01 06:08:01;;;;;;;12.20;5.28;;;11.80;99.90;;;;;;5074597;28;20082;-37
2023/06/01 06:10:26;;;;;;;12.50;5.75;;;11.80;99.90;;;;;;5070529;28;20054;-41
2023/06/01 06:12:52;;;;;;;12.40;6.70;;;11.80;99.90;;;;;;5054765;28;20377;-42
2023/06/01 06:15:18;;;;;;;14.13;6.53;;;11.80;99.90;;;;;;5066343;28;20502;-37
2023/06/01 06:17:43;;;;;;;17.70;7.97;;;11.80;99.90;;;;;;5074572;28;20495;-37
2023/06/01 06:20:10;;;;;;;11.07;6.68;;;11.90;99.90;;;;;;5073899;28;20460;-41
2023/06/01 06:22:36;;;;;;;14.05;5.82;;;11.90;99.90;;;;;;5071775;28;20451;-38
2023/06/01 06:25:02;;;;;;;14.20;7.65;;;12.10;99.90;;;;;;5068797;28;20519;-39
2023/06/01 06:27:28;;;;;;;11.35;6.75;;;12.00;99.90;;;;;;5070157;28;20043;-37
2023/06/01 06:29:54;;;;;;;14.80;8.02;;;12.00;99.90;;;;;;5070364;28;20043;-37
2023/06/01 06:32:20;;;;;;;13.65;7.22;;;12.00;99.90;;;;;;5069184;28;20040;-38
2023/06/01 06:34:46;;;;;;;12.23;6.13;;;12.00;99.90;;;;;;5071102;28;20113;-39
2023/06/01 06:37:11;;;;;;;10.98;6.20;;;12.10;99.90;;;;;;5067557;28;20580;-37
2023/06/01 06:39:37;;;;;;;10.68;5.68;;;12.10;99.90;;;;;;5070072;28;20052;-40
2023/06/01 06:42:05;;;;;;;11.93;4.78;;;12.30;99.90;;;;;;5070371;28;20040;-40
2023/06/01 06:44:31;;;;;;;10.23;5.40;;;12.30;99.90;;;;;;5069215;28;20522;-36
2023/06/01 06:46:58;;;;;;;9.90;5.40;;;12.40;99.90;;;;;;5070291;28;20551;-39
2023/06/01 06:49:24;;;;;;;14.98;6.85;;;12.40;99.90;;;;;;5067353;28;20467;-40
2023/06/01 06:51:50;;;;;;;11.65;5.13;;;12.40;99.90;;;;;;5069702;28;20043;-39
2023/06/01 06:54:15;;;;;;;10.48;4.50;;;12.30;99.90;;;;;;5070540;28;20333;-41
2023/06/01 06:56:41;;;;;;;8.85;4.88;;;12.30;99.90;;;;;;5069369;28;20075;-43
2023/06/01 06:59:08;;;;;;;12.00;5.47;;;12.30;99.90;;;;;;5070104;28;20508;-39
2023/06/01 07:01:37;;;;;;;10.13;5.45;;;12.40;99.90;;;;;;5068608;28;20371;-44
2023/06/01 07:04:06;;;;;;;8.80;4.72;;;12.50;99.90;;;;;;5070176;28;20052;-39
2023/06/01 07:06:35;;;;;;;9.50;4.40;;;12.50;99.90;;;;;;5068434;28;20517;-36
2023/06/01 07:09:01;;;;;;;12.25;4.90;;;12.60;99.90;;;;;;5070014;28;20040;-36
2023/06/01 07:11:27;;;;;;;9.23;5.53;;;12.70;99.90;;;;;;5068875;28;20135;-37
2023/06/01 07:13:55;;;;;;;11.18;5.15;;;12.70;99.90;;;;;;5070396;28;20040;-42
2023/06/01 07:16:21;;;;;;;10.20;4.53;;;12.70;99.90;;;;;;5069996;28;20070;-36
2023/06/01 07:18:46;;;;;;;10.85;4.35;;;12.70;99.90;;;;;;5069656;28;20712;-38
2023/06/01 07:21:12;;;;;;;16.90;5.70;;;12.80;99.90;;;;;;5056011;28;20045;-43
2023/06/01 07:23:41;;;;;;;14.95;4.85;;;12.80;99.90;;;;;;5060257;28;20043;-37
2023/06/01 07:26:06;;;;;;;10.65;4.32;;;13.00;99.90;;;;;;5054259;28;20079;-40
2023/06/01 07:28:32;;;;;;;15.63;5.65;;;13.10;99.90;;;;;;5056392;28;20123;-40
2023/06/01 07:30:58;;;;;;;9.52;4.05;;;13.10;99.90;;;;;;5070592;28;20048;-39
2023/06/01 07:33:25;;;;;;;13.60;5.75;;;13.10;99.90;;;;;;5070727;28;20391;-36
2023/06/01 07:35:52;;;;;;;11.63;4.43;;;13.20;99.90;;;;;;5072724;28;20058;-36
2023/06/01 07:38:20;;;;;;;10.07;4.30;;;13.20;99.90;;;;;;5055283;28;20056;-38
2023/06/01 07:40:46;;;;;;;7.90;3.78;;;13.20;99.90;;;;;;5060355;28;20044;-41
2023/06/01 07:43:11;;;;;;;7.45;3.20;;;13.20;99.90;;;;;;5064207;28;20052;-37
2023/06/01 07:45:39;;;;;;;9.20;3.80;;;13.20;99.90;;;;;;5073490;28;20044;-39
2023/06/01 07:48:05;;;;;;;7.65;3.97;;;13.20;99.90;;;;;;5070479;28;20119;-39
2023/06/01 07:50:31;;;;;;;9.50;3.58;;;13.10;99.90;;;;;;5066126;28;20402;-39
2023/06/01 07:52:57;;;;;;;8.38;3.78;;;13.00;99.90;;;;;;5073264;28;20104;-39
2023/06/01 07:55:23;;;;;;;6.90;3.50;;;13.00;99.90;;;;;;5073693;28;20040;-41
2023/06/01 07:57:50;;;;;;;9.20;3.60;;;13.00;99.90;;;;;;5073500;28;20397;-40
2023/06/01 08:00:17;;;;;;;9.88;3.50;;;13.10;99.90;;;;;;5072292;28;20218;-41
2023/06/01 08:02:45;;;;;;;8.27;3.53;;;13.20;99.90;;;;;;5072316;28;20047;-37
2023/06/01 08:05:11;;;;;;;11.32;3.97;;;13.20;99.90;;;;;;5073415;28;20044;-43
2023/06/01 08:07:42;;;;;;;6.95;3.95;;;13.40;99.90;;;;;;5073003;28;20042;-41
2023/06/01 08:10:08;;;;;;;7.68;4.13;;;13.40;99.90;;;;;;5072800;28;20488;-38
2023/06/01 08:12:35;;;;;;;7.43;3.15;;;13.50;99.90;;;;;;5071824;28;20289;-38
2023/06/01 08:15:03;;;;;;;7.03;3.25;;;13.70;99.90;;;;;;5076076;28;20059;-36
2023/06/01 08:17:29;;;;;;;7.97;3.50;;;13.80;99.90;;;;;;5075461;28;20044;-41
2023/06/01 08:19:56;;;;;;;8.70;4.32;;;13.90;99.90;;;;;;5076088;28;20036;-40
2023/06/01 08:22:23;;;;;;;8.98;3.83;;;14.00;99.90;;;;;;5075809;28;20044;-44
2023/06/01 08:24:51;;;;;;;6.22;4.15;;;13.90;99.90;;;;;;5076919;28;20044;-40
2023/06/01 08:27:21;;;;;;;6.30;3.72;;;14.00;99.90;;;;;;5074899;28;20064;-41
2023/06/01 08:29:48;;;;;;;8.55;3.90;;;14.00;99.90;;;;;;5075102;28;20051;-36
2023/06/01 08:32:15;;;;;;;7.40;3.85;;;14.00;99.90;;;;;;5075481;28;20062;-37
2023/06/01 08:34:43;;;;;;;7.60;3.38;;;13.90;99.90;;;;;;5075182;28;20054;-40
2023/06/01 08:37:08;;;;;;;7.35;4.22;;;13.90;99.90;;;;;;5068424;28;20117;-38
2023/06/01 08:39:34;;;;;;;9.38;3.67;;;13.80;99.90;;;;;;5056869;28;20559;-39
2023/06/01 08:42:14;;;;;;;6.97;3.67;;;13.80;99.90;;;;;;5067490;28;20626;-41
2023/06/01 08:44:40;;;;;;;9.75;3.83;;;13.80;99.90;;;;;;5068321;28;20048;-40
2023/06/01 08:47:07;;;;;;;6.47;2.90;;;13.80;99.90;;;;;;5064983;28;20052;-36
2023/06/01 08:49:34;;;;;;;8.05;2.83;;;13.80;99.90;;;;;;5061711;28;20041;-36
2023/06/01 08:52:12;;;;;;;4.95;3.60;;;13.80;99.90;;;;;;5062904;28;20354;-40
2023/06/01 08:54:38;;;;;;;7.53;3.50;;;13.90;99.90;;;;;;5075653;28;20040;-38
2023/06/01 08:57:08;;;;;;;12.02;4.72;;;13.70;99.90;;;;;;5076044;28;20052;-38
2023/06/01 08:59:35;;;;;;;16.67;5.72;;;13.60;99.90;;;;;;5074556;28;20044;-38
2023/06/01 09:02:01;;;;;;;17.95;5.05;;;13.60;99.90;;;;;;5074777;28;20597;-39
2023/06/01 09:04:30;;;;;;;13.52;4.93;;;13.60;99.90;;;;;;5074599;28;20565;-42
2023/06/01 09:06:56;;;;;;;9.52;4.93;;;13.60;99.90;;;;;;5073224;28;20577;-38
2023/06/01 09:09:22;;;;;;;6.78;3.95;;;13.60;99.90;;;;;;5074851;28;20085;-39
2023/06/01 09:11:48;;;;;;;7.13;4.38;;;13.60;99.90;;;;;;5074622;28;20043;-40
2023/06/01 09:14:24;;;;;;;9.93;4.40;;;13.60;99.90;;;;;;5063374;28;20044;-37
2023/06/01 09:16:51;;;;;;;13.73;4.25;;;13.70;99.90;;;;;;5075394;28;20520;-36
2023/06/01 09:19:20;;;;;;;11.57;4.47;;;13.80;99.90;;;;;;5073887;28;20055;-40
2023/06/01 09:21:59;;;;;;;12.00;4.60;;;13.80;99.90;;;;;;5074417;28;20581;-42
2023/06/01 09:24:25;;;;;;;10.38;4.38;;;13.90;99.90;;;;;;5074325;28;20047;-39
2023/06/01 09:27:02;;;;;;;12.02;4.40;;;13.90;99.90;;;;;;5074446;28;20051;-41
2023/06/01 09:29:28;;;;;;;12.57;4.78;;;13.80;99.90;;;;;;5072352;28;20055;-40
2023/06/01 09:31:54;;;;;;;12.48;5.07;;;13.80;99.90;;;;;;5073577;28;20040;-40
2023/06/01 09:34:21;;;;;;;14.27;5.13;;;13.80;99.90;;;;;;5072124;28;20127;-38
2023/06/01 09:36:54;;;;;;;14.05;5.40;;;13.80;99.90;;;;;;5068654;28;20048;-41
2023/06/01 09:39:22;;;;;;;17.35;5.80;;;13.60;99.90;;;;;;5054932;28;20388;-37
2023/06/01 09:41:55;;;;;;;13.43;5.00;;;13.50;99.90;;;;;;5069735;28;20460;-39
2023/06/01 09:44:29;;;;;;;11.45;5.22;;;13.60;99.90;;;;;;5066174;28;20385;-38
2023/06/01 09:47:03;;;;;;;14.82;4.90;;;13.70;99.90;;;;;;5074666;28;20503;-36
2023/06/01 09:49:43;;;;;;;13.02;5.28;;;13.70;99.90;;;;;;5066903;28;20049;-37
2023/06/01 09:52:12;;;;;;;16.50;5.32;;;13.80;99.90;;;;;;5062019;28;20047;-39
2023/06/01 09:54:44;;;;;;;13.13;5.20;;;13.80;99.90;;;;;;5073642;28;20128;-39
2023/06/01 09:57:11;;;;;;;10.98;5.15;;;13.80;99.90;;;;;;5074212;28;20058;-39
2023/06/01 09:59:42;;;;;;;14.43;5.15;;;13.60;99.90;;;;;;5072218;28;20046;-42
2023/06/01 10:02:31;;;;;;;15.70;5.32;;;13.60;99.90;;;;;;5072540;28;20514;-38
2023/06/01 10:04:58;;;;;;;12.27;4.65;;;13.60;99.90;;;;;;5071693;28;20372;-39
2023/06/01 10:07:33;;;;;;;19.00;5.50;;;13.70;99.90;;;;;;5073185;28;20048;-39
2023/06/01 10:10:02;;;;;;;15.40;5.10;;;13.70;99.90;;;;;;5073435;28;20414;-38
2023/06/01 10:12:28;;;;;;;16.70;4.80;;;13.50;99.90;;;;;;5072026;28;20056;-39
2023/06/01 10:14:55;;;;;;;12.73;4.60;;;13.60;99.90;;;;;;5073185;28;20399;-42
2023/06/01 10:17:21;;;;;;;11.40;5.57;;;13.60;99.90;;;;;;5073921;28;20048;-35
2023/06/01 10:19:48;;;;;;;12.45;4.40;;;13.70;99.90;;;;;;5073259;28;20073;-44
2023/06/01 10:22:14;;;;;;;12.93;5.72;;;13.70;99.90;;;;;;5072708;28;20078;-42
2023/06/01 10:24:41;;;;;;;12.00;5.07;;;13.70;99.90;;;;;;5071188;28;20047;-40
2023/06/01 10:27:33;;;;;;;14.73;4.65;;;13.80;99.90;;;;;;5054322;28;20948;-38
2023/06/01 10:29:59;;;;;;;8.57;4.13;;;13.90;99.90;;;;;;5072624;28;20156;-37
2023/06/01 10:32:37;;;;;;;12.88;4.82;;;13.90;99.90;;;;;;5069603;28;20126;-38
2023/06/01 10:35:03;;;;;;;10.50;4.38;;;14.10;99.90;;;;;;5072686;28;20052;-42
2023/06/01 10:37:30;;;;;;;11.23;5.00;;;14.20;99.90;;;;;;5068975;28;20172;-42
2023/06/01 10:40:17;;;;;;;18.17;4.80;;;14.20;99.90;;;;;;5090178;27;20037;-36
2023/06/01 10:42:43;;;;;;;12.93;5.28;;;14.30;99.90;;;;;;5072210;28;20036;-43
2023/06/01 10:45:38;;;;;;;12.18;4.80;;;14.40;99.90;;;;;;5073118;28;20098;-46
2023/06/01 10:48:11;;;;;;;11.35;4.50;;;14.30;99.90;;;;;;5073441;28;20521;-40
2023/06/01 10:50:38;;;;;;;10.98;5.07;;;14.40;99.90;;;;;;5064916;28;20048;-40
2023/06/01 10:53:24;;;;;;;10.05;4.63;;;14.30;99.90;;;;;;5072600;28;20442;-40
2023/06/01 10:56:23;;;;;;;11.05;4.47;;;14.40;99.90;;;;;;5073189;28;20535;-39
2023/06/01 10:59:09;;;;;;;12.88;6.20;;;14.60;99.90;;;;;;5072744;28;20499;-40
2023/06/01 11:01:45;;;;;;;11.95;5.38;;;14.70;99.90;;;;;;5072239;28;20055;-40
2023/06/01 11:04:12;;;;;;;11.23;4.72;;;14.70;99.90;;;;;;5073401;28;20048;-41
2023/06/01 11:06:40;;;;;;;7.28;4.32;;;14.80;99.90;;;;;;5073298;28;20066;-37
2023/06/01 11:09:07;;;;;;;10.05;4.97;;;14.90;99.90;;;;;;5072467;28;20044;-39
2023/06/01 11:11:58;;;;;;;13.80;5.63;;;15.00;99.90;;;;;;5071652;28;20567;-42
2023/06/01 11:14:25;;;;;;;8.98;4.80;;;15.10;99.90;;;;;;5073067;28;20052;-43
2023/06/01 11:16:55;;;;;;;13.30;5.70;;;15.20;99.90;;;;;;5072264;28;20040;-37
2023/06/01 11:19:25;;;;;;;15.00;5.32;;;15.20;99.90;;;;;;5071574;28;20078;-38
2023/06/01 11:22:03;;;;;;;11.65;5.50;;;15.20;99.90;;;;;;5072128;28;20463;-37
2023/06/01 11:24:34;;;;;;;20.27;5.93;;;15.20;99.90;;;;;;5098969;27;20064;-43
2023/06/01 11:27:04;;;;;;;13.95;5.40;;;15.00;99.90;;;;;;5069237;28;20537;-39
2023/06/01 11:29:31;;;;;;;11.45;5.35;;;14.80;99.90;;;;;;5068681;28;20083;-38
2023/06/01 11:31:59;;;;;;;11.88;5.55;;;15.00;99.90;;;;;;5072015;28;20127;-41
2023/06/01 11:34:34;;;;;;;14.40;5.80;;;15.00;99.90;;;;;;5072906;28;20052;-39
2023/06/01 11:37:01;;;;;;;10.70;5.53;;;15.20;99.90;;;;;;5068551;28;20558;-41
2023/06/01 11:39:30;;;;;;;11.40;5.75;;;15.20;99.90;;;;;;5069116;28;20140;-43
2023/06/01 11:42:10;;;;;;;15.57;5.38;;;15.20;99.90;;;;;;5071747;28;20143;-39
2023/06/01 11:44:41;;;;;;;11.23;4.60;;;15.30;99.90;;;;;;5072345;28;20570;-44
2023/06/01 11:47:08;;;;;;;11.98;5.65;;;15.30;99.90;;;;;;5072572;28;20048;-38
2023/06/01 11:50:00;;;;;;;12.65;5.13;;;15.40;99.90;;;;;;5073403;28;20035;-41
2023/06/01 11:52:26;;;;;;;9.68;4.38;;;15.30;99.90;;;;;;5072283;28;20063;-39
2023/06/01 11:54:52;;;;;;;10.40;4.57;;;15.40;99.90;;;;;;5075881;28;20098;-41
2023/06/01 11:57:19;;;;;;;10.23;4.35;;;15.50;99.90;;;;;;5077494;28;20044;-41
2023/06/01 11:59:50;;;;;;;7.90;4.20;;;15.50;99.90;;;;;;5074735;28;20056;-40
2023/06/01 12:02:29;;;;;;;11.50;4.50;;;15.70;99.90;;;;;;5075564;28;20591;-40
2023/06/01 12:05:08;;;;;;;12.63;4.65;;;15.80;99.90;;;;;;5076819;28;20547;-38
2023/06/01 12:07:44;;;;;;;13.05;4.88;;;15.70;99.90;;;;;;5074894;28;20048;-39
2023/06/01 12:10:16;;;;;;;8.43;4.40;;;15.50;99.90;;;;;;5077194;28;20135;-38
2023/06/01 12:12:43;;;;;;;14.27;5.68;;;15.40;99.90;;;;;;5075961;28;20044;-37
2023/06/01 12:15:19;;;;;;;10.05;4.85;;;15.30;99.90;;;;;;5076163;28;20109;-41
2023/06/01 12:17:56;;;;;;;9.18;4.30;;;15.00;99.90;;;;;;5074060;28;20259;-40
2023/06/01 12:20:42;;;;;;;11.23;5.03;;;15.10;99.90;;;;;;5075910;28;20092;-40
2023/06/01 12:23:14;;;;;;;7.50;4.20;;;15.30;99.90;;;;;;5065748;28;20069;-40
2023/06/01 12:25:53;;;;;;;6.20;4.60;;;15.30;99.90;;;;;;5074394;28;20166;-40
2023/06/01 12:28:21;;;;;;;11.23;3.85;;;15.30;99.90;;;;;;5075211;28;20312;-36
2023/06/01 12:30:48;;;;;;;17.88;4.68;;;15.30;99.90;;;;;;5074902;28;20043;-37
2023/06/01 12:33:34;;;;;;;11.13;4.40;;;15.30;99.90;;;;;;5075451;28;20039;-41
2023/06/01 12:36:05;;;;;;;9.55;4.25;;;15.30;99.90;;;;;;5067544;28;20572;-39
2023/06/01 12:38:37;;;;;;;6.93;3.80;;;15.40;99.90;;;;;;5056488;28;20049;-41
2023/06/01 12:41:11;;;;;;;7.68;3.47;;;15.40;99.90;;;;;;5064413;28;20048;-38
2023/06/01 12:43:38;;;;;;;7.82;3.70;;;15.40;99.90;;;;;;5073388;28;20052;-40
2023/06/01 12:46:07;;;;;;;9.73;3.65;;;15.50;99.90;;;;;;5064941;28;20071;-40